createdAt,value
2022-08-19T00:00:18.507Z,100350.09
2022-08-19T00:02:50.161Z,100340.28
2022-08-19T00:05:21.708Z,100350.38
2022-08-19T00:07:54.791Z,100351.47
2022-08-19T00:10:25.508Z,100348.44
2022-08-19T00:12:55.516Z,100365.09
2022-08-19T00:15:25.647Z,100375.44
2022-08-19T00:17:55.502Z,100388.53
2022-08-19T00:20:26.873Z,100391.00
2022-08-19T00:22:59.503Z,100393.19
2022-08-19T00:25:30.461Z,100385.28
2022-08-19T00:28:00.908Z,100389.41
2022-08-19T00:30:31.301Z,100387.47
2022-08-19T00:33:01.465Z,100381.22
2022-08-19T00:35:31.312Z,100369.50
2022-08-19T00:38:03.845Z,100361.91
2022-08-19T00:40:34.135Z,100354.56
2022-08-19T00:43:04.048Z,100340.69
2022-08-19T00:45:36.661Z,100340.44
2022-08-19T00:48:14.713Z,100346.16
2022-08-19T00:50:51.733Z,100355.41
2022-08-19T00:53:28.106Z,100355.97
2022-08-19T00:56:02.013Z,100360.31
2022-08-19T00:58:36.275Z,100357.59
2022-08-19T01:01:08.952Z,100349.16
2022-08-19T01:03:57.911Z,100355.41
2022-08-19T01:06:29.595Z,100353.78
2022-08-19T01:09:02.542Z,100358.41
2022-08-19T01:11:38.944Z,100363.84
2022-08-19T01:14:09.827Z,100374.75
2022-08-19T01:16:41.213Z,100376.38
2022-08-19T01:19:19.815Z,100372.31
2022-08-19T01:21:57.354Z,100389.75
2022-08-19T01:24:29.938Z,100375.03
2022-08-19T01:27:00.667Z,100379.13
2022-08-19T01:29:30.530Z,100387.03
2022-08-19T01:32:01.770Z,100400.91
2022-08-19T01:34:31.567Z,100409.38
2022-08-19T01:37:02.809Z,100402.56
2022-08-19T01:39:35.301Z,100391.13
2022-08-19T01:42:05.439Z,100389.25
2022-08-19T01:44:37.319Z,100375.06
2022-08-19T01:47:07.692Z,100349.22
2022-08-19T01:49:37.549Z,100321.47
2022-08-19T01:52:08.546Z,100311.41
2022-08-19T01:54:40.991Z,100302.44
2022-08-19T01:57:15.107Z,100292.66
2022-08-19T01:59:47.517Z,100300.00
2022-08-19T02:02:17.711Z,100282.59
2022-08-19T02:04:47.785Z,100269.00
2022-08-19T02:07:18.471Z,100275.25
2022-08-19T02:09:51.043Z,100270.09
2022-08-19T02:12:21.813Z,100265.72
2022-08-19T02:14:51.743Z,100277.44
2022-08-19T02:17:21.763Z,100272.53
2022-08-19T02:19:51.669Z,100275.53
2022-08-19T02:22:21.543Z,100279.06
2022-08-19T02:24:53.969Z,100274.72
2022-08-19T02:27:24.255Z,100275.81
2022-08-19T02:29:54.762Z,100286.44
2022-08-19T02:32:24.897Z,100286.72
2022-08-19T02:34:54.797Z,100276.66
2022-08-19T02:37:37.085Z,100272.31
2022-08-19T02:40:12.399Z,100268.50
2022-08-19T02:42:44.133Z,100273.13
2022-08-19T02:45:14.359Z,100282.38
2022-08-19T02:47:44.333Z,100286.75
2022-08-19T02:50:14.692Z,100291.91
2022-08-19T02:52:44.706Z,100289.19
2022-08-19T02:55:17.132Z,100283.75
2022-08-19T02:57:47.805Z,100273.13
2022-08-19T03:00:19.215Z,100275.31
2022-08-19T03:02:49.837Z,100270.72
2022-08-19T03:05:19.995Z,100293.25
2022-08-19T03:07:58.293Z,100283.72
2022-08-19T03:10:30.708Z,100282.66
2022-08-19T03:13:00.539Z,100289.19
2022-08-19T03:15:34.453Z,100290.28
2022-08-19T03:18:04.312Z,100288.38
2022-08-19T03:20:34.208Z,100273.97
2022-08-19T03:23:04.116Z,100261.44
2022-08-19T03:25:41.588Z,100253.56
2022-08-19T03:28:11.514Z,100254.38
2022-08-19T03:30:43.664Z,100256.28
2022-08-19T03:33:18.115Z,100242.44
2022-08-19T03:36:06.536Z,100244.34
2022-08-19T03:38:36.531Z,100251.13
2022-08-19T03:41:12.156Z,100266.38
2022-08-19T03:43:43.382Z,100268.81
2022-08-19T03:46:16.726Z,100274.53
2022-08-19T03:48:47.872Z,100283.50
2022-08-19T03:51:30.518Z,100282.16
2022-08-19T03:54:03.656Z,100274.81
2022-08-19T03:56:37.805Z,100264.22
2022-08-19T03:59:08.989Z,100279.72
2022-08-19T04:01:39.487Z,100268.31
2022-08-19T04:04:09.539Z,100269.13
2022-08-19T04:06:40.863Z,100276.69
2022-08-19T04:09:12.556Z,100284.84
2022-08-19T04:11:48.270Z,100282.69
2022-08-19T04:14:20.614Z,100286.50
2022-08-19T04:16:51.420Z,100285.13
2022-08-19T04:19:22.889Z,100289.47
2022-08-19T04:21:55.193Z,100276.97
2022-08-19T04:24:26.027Z,100268.00
2022-08-19T04:26:59.156Z,100272.09
2022-08-19T04:29:29.928Z,100275.63
2022-08-19T04:32:08.417Z,100284.88
2022-08-19T04:35:02.423Z,100281.63
2022-08-19T04:37:35.421Z,100285.16
2022-08-19T04:40:21.006Z,100287.06
2022-08-19T04:42:55.025Z,100284.06
2022-08-19T04:45:25.337Z,100277.25
2022-08-19T04:48:25.682Z,100289.50
2022-08-19T04:50:50.232Z,100282.69
2022-08-19T04:53:20.055Z,100274.25
2022-08-19T04:55:49.931Z,100279.44
2022-08-19T04:58:22.592Z,100275.91
2022-08-19T05:00:52.533Z,100273.44
2022-08-19T05:03:26.490Z,100277.50
2022-08-19T05:05:59.113Z,100275.09
2022-08-19T05:08:31.453Z,100275.91
2022-08-19T05:11:01.798Z,100263.13
2022-08-19T05:13:34.169Z,100257.44
2022-08-19T05:16:03.946Z,100268.31
2022-08-19T05:18:46.313Z,100262.06
2022-08-19T05:21:31.647Z,100251.16
2022-08-19T05:24:02.334Z,100246.81
2022-08-19T05:26:32.159Z,100246.56
2022-08-19T05:29:04.582Z,100241.94
2022-08-19T05:31:35.143Z,100247.63
2022-08-19T05:34:05.685Z,100246.00
2022-08-19T05:36:49.334Z,100246.81
2022-08-19T05:39:22.645Z,100254.97
2022-08-19T05:41:58.101Z,100249.53
2022-08-19T05:44:33.588Z,100256.06
2022-08-19T05:47:03.885Z,100260.94
2022-08-19T05:49:37.181Z,100259.28
2022-08-19T05:52:08.220Z,100260.34
2022-08-19T05:54:39.047Z,100260.31
2022-08-19T05:57:08.918Z,100255.22
2022-08-19T05:59:45.046Z,100257.13
2022-08-19T06:02:16.148Z,100250.88
2022-08-19T06:04:46.615Z,100254.88
2022-08-19T06:07:18.017Z,100267.41
2022-08-19T06:09:56.053Z,100278.84
2022-08-19T06:12:29.921Z,100275.59
2022-08-19T06:15:02.938Z,100283.19
2022-08-19T06:17:33.023Z,100293.81
2022-08-19T06:20:03.128Z,100291.34
2022-08-19T06:22:33.031Z,100290.00
2022-08-19T06:25:02.928Z,100289.72
2022-08-19T06:27:33.846Z,100285.94
2022-08-19T06:30:07.454Z,100282.66
2022-08-19T06:32:41.080Z,100279.13
2022-08-19T06:35:14.296Z,100280.75
2022-08-19T06:37:45.319Z,100279.13
2022-08-19T06:40:15.957Z,100278.84
2022-08-19T06:42:54.337Z,100272.59
2022-08-19T06:45:34.885Z,100277.22
2022-08-19T06:48:06.301Z,100275.03
2022-08-19T06:50:39.318Z,100282.13
2022-08-19T06:53:09.590Z,100289.72
2022-08-19T06:55:41.399Z,100286.72
2022-08-19T06:58:11.310Z,100287.53
2022-08-19T07:00:44.798Z,100295.97
2022-08-19T07:03:14.713Z,100305.47
2022-08-19T07:05:45.807Z,100312.56
2022-08-19T07:08:16.352Z,100321.78
2022-08-19T07:10:50.187Z,100327.22
2022-08-19T07:13:20.223Z,100334.59
2022-08-19T07:15:53.214Z,100327.78
2022-08-19T07:18:24.029Z,100326.69
2022-08-19T07:21:06.740Z,100325.06
2022-08-19T07:23:40.040Z,100316.63
2022-08-19T07:26:10.692Z,100314.72
2022-08-19T07:28:41.014Z,100319.09
2022-08-19T07:31:26.026Z,100323.44
2022-08-19T07:33:58.218Z,100327.78
2022-08-19T07:36:33.256Z,100318.00
2022-08-19T07:39:06.519Z,100321.25
2022-08-19T07:41:38.015Z,100316.63
2022-08-19T07:44:09.263Z,100322.38
2022-08-19T07:46:48.170Z,100321.56
2022-08-19T07:49:21.117Z,100329.19
2022-08-19T07:51:53.154Z,100330.00
2022-08-19T07:54:24.580Z,100337.59
2022-08-19T07:56:54.562Z,100339.78
2022-08-19T07:59:25.048Z,100344.13
2022-08-19T08:01:57.736Z,100348.47
2022-08-19T08:04:40.737Z,100348.19
2022-08-19T08:07:24.452Z,100346.28
2022-08-19T08:10:02.967Z,100353.34
2022-08-19T08:12:39.880Z,100346.28
2022-08-19T08:15:17.138Z,100346.00
2022-08-19T08:17:51.618Z,100357.41
2022-08-19T08:20:22.493Z,100370.47
2022-08-19T08:23:04.940Z,100363.66
2022-08-19T08:25:36.457Z,100375.34
2022-08-19T08:28:11.351Z,100373.44
2022-08-19T08:30:48.934Z,100378.34
2022-08-19T08:33:32.858Z,100373.44
2022-08-19T08:36:05.128Z,100376.44
2022-08-19T08:38:43.018Z,100375.84
2022-08-19T08:41:21.273Z,100365.47
2022-08-19T08:43:54.009Z,100369.00
2022-08-19T08:46:31.778Z,100374.41
2022-08-19T08:49:11.376Z,100368.00
2022-08-19T08:51:47.477Z,100373.38
2022-08-19T08:54:21.576Z,100366.97
2022-08-19T08:56:55.863Z,100367.50
2022-08-19T08:59:33.427Z,100352.47
2022-08-19T09:02:03.774Z,100360.09
2022-08-19T09:04:39.855Z,100371.31
2022-08-19T09:07:35.059Z,100372.16
2022-08-19T09:10:14.276Z,100379.22
2022-08-19T09:12:57.548Z,100378.41
2022-08-19T09:15:36.848Z,100380.31
2022-08-19T09:18:07.953Z,100378.16
2022-08-19T09:20:48.728Z,100382.28
2022-08-19T09:23:18.597Z,100385.28
2022-08-19T09:25:56.743Z,100374.13
2022-08-19T09:28:28.639Z,100373.59
2022-08-19T09:30:58.514Z,100374.94
2022-08-19T09:33:28.406Z,100370.56
2022-08-19T09:36:10.519Z,100362.06
2022-08-19T09:38:43.422Z,100368.28
2022-08-19T09:41:17.234Z,100368.50
2022-08-19T09:43:53.015Z,100371.00
2022-08-19T09:46:24.657Z,100373.72
2022-08-19T09:49:06.457Z,100371.25
2022-08-19T09:51:39.194Z,100367.31
2022-08-19T09:54:11.348Z,100374.97
2022-08-19T09:56:42.385Z,100363.59
2022-08-19T09:59:13.187Z,100363.91
2022-08-19T10:01:43.239Z,100368.03
2022-08-19T10:04:14.761Z,100362.91
2022-08-19T10:06:55.436Z,100367.06
2022-08-19T10:09:34.129Z,100367.09
2022-08-19T10:12:06.717Z,100362.50
2022-08-19T10:14:41.451Z,100358.97
2022-08-19T10:17:19.384Z,100361.72
2022-08-19T10:19:55.851Z,100356.81
2022-08-19T10:22:28.926Z,100356.28
2022-08-19T10:25:01.970Z,100350.25
2022-08-19T10:27:32.259Z,100338.81
2022-08-19T10:30:02.276Z,100339.25
2022-08-19T10:32:34.114Z,100342.97
2022-08-19T10:35:08.071Z,100341.81
2022-08-19T10:37:48.419Z,100348.38
2022-08-19T10:40:27.630Z,100341.28
2022-08-19T10:42:57.910Z,100345.41
2022-08-19T10:45:28.429Z,100340.75
2022-08-19T10:47:58.706Z,100343.50
2022-08-19T10:50:41.026Z,100342.72
2022-08-19T10:53:14.115Z,100340.63
2022-08-19T10:55:56.470Z,100345.78
2022-08-19T10:58:27.113Z,100345.53
2022-08-19T11:00:58.373Z,100343.91
2022-08-19T11:03:31.310Z,100350.72
2022-08-19T11:06:02.391Z,100351.78
2022-08-19T11:08:35.947Z,100346.31
2022-08-19T11:11:07.616Z,100346.84
2022-08-19T11:13:46.918Z,100359.38
2022-08-19T11:16:19.915Z,100362.09
2022-08-19T11:18:53.442Z,100357.22
2022-08-19T11:21:26.383Z,100361.59
2022-08-19T11:24:01.908Z,100364.38
2022-08-19T11:26:33.108Z,100365.47
2022-08-19T11:29:04.017Z,100360.59
2022-08-19T11:31:36.416Z,100369.31
2022-08-19T11:34:11.161Z,100360.63
2022-08-19T11:36:42.766Z,100369.88
2022-08-19T11:39:18.267Z,100369.09
2022-08-19T11:41:48.532Z,100371.53
2022-08-19T11:44:18.421Z,100364.16
2022-08-19T11:46:49.594Z,100372.34
2022-08-19T11:49:22.516Z,100374.25
2022-08-19T11:51:53.851Z,100381.34
2022-08-19T11:54:26.385Z,100380.50
2022-08-19T11:56:57.177Z,100380.78
2022-08-19T11:59:27.884Z,100392.78
2022-08-19T12:02:00.227Z,100390.59
2022-08-19T12:04:30.124Z,100392.22
2022-08-19T12:07:00.026Z,100402.56
2022-08-19T12:09:35.353Z,100391.66
2022-08-19T12:12:05.663Z,100408.28
2022-08-19T12:14:35.607Z,100404.75
2022-08-19T12:17:07.469Z,100396.84
2022-08-19T12:19:40.468Z,100400.66
2022-08-19T12:22:10.408Z,100410.16
2022-08-19T12:24:43.734Z,100404.44
2022-08-19T12:27:13.607Z,100409.56
2022-08-19T12:30:02.810Z,100413.88
2022-08-19T12:32:32.823Z,100410.31
2022-08-19T12:35:02.746Z,100413.31
2022-08-19T12:37:33.328Z,100413.56
2022-08-19T12:40:07.715Z,100413.53
2022-08-19T12:42:38.595Z,100403.63
2022-08-19T12:45:09.212Z,100411.78
2022-08-19T12:47:39.048Z,100401.38
2022-08-19T12:50:12.463Z,100406.25
2022-08-19T12:52:43.513Z,100405.38
2022-08-19T12:55:16.253Z,100402.91
2022-08-19T12:57:46.106Z,100406.44
2022-08-19T13:00:19.546Z,100401.25
2022-08-19T13:02:51.567Z,100391.88
2022-08-19T13:05:23.797Z,100399.16
2022-08-19T13:07:56.895Z,100406.47
2022-08-19T13:10:32.642Z,100403.75
2022-08-19T13:13:03.198Z,100411.34
2022-08-19T13:15:33.287Z,100409.47
2022-08-19T13:18:03.338Z,100404.25
2022-08-19T13:20:33.225Z,100405.66
2022-08-19T13:23:03.004Z,100405.13
2022-08-19T13:25:37.208Z,100409.53
2022-08-19T13:28:07.977Z,100417.50
2022-08-19T13:30:50.293Z,100420.50
2022-08-19T13:33:20.170Z,100417.81
2022-08-19T13:35:52.872Z,100419.22
2022-08-19T13:38:24.567Z,100417.88
2022-08-19T13:40:58.616Z,100419.50
2022-08-19T13:43:30.513Z,100414.28
2022-08-19T13:46:01.064Z,100414.53
2022-08-19T13:48:32.102Z,100402.50
2022-08-19T13:51:01.892Z,100404.13
2022-08-19T13:53:31.950Z,100407.38
2022-08-19T13:56:04.495Z,100407.09
2022-08-19T13:58:34.346Z,100404.03
2022-08-19T14:01:04.371Z,100405.66
2022-08-19T14:03:34.709Z,100412.19
2022-08-19T14:06:05.153Z,100411.91
2022-08-19T14:08:35.027Z,100405.34
2022-08-19T14:11:07.500Z,100399.59
2022-08-19T14:13:37.918Z,100386.19
2022-08-19T14:16:12.193Z,100396.53
2022-08-19T14:18:42.666Z,100394.88
2022-08-19T14:21:19.083Z,100399.81
2022-08-19T14:23:48.885Z,100397.34
2022-08-19T14:26:29.892Z,100403.44
2022-08-19T14:29:03.861Z,100409.47
2022-08-19T14:31:33.751Z,100406.22
2022-08-19T14:34:03.562Z,100408.44
2022-08-19T14:36:38.966Z,100408.50
2022-08-19T14:39:09.428Z,100409.06
2022-08-19T14:41:44.579Z,100412.13
2022-08-19T14:44:14.983Z,100418.16
2022-08-19T14:46:49.426Z,100413.56
2022-08-19T14:49:19.712Z,100407.06
2022-08-19T14:51:50.457Z,100405.69
2022-08-19T14:54:20.362Z,100408.47
2022-08-19T14:56:52.808Z,100411.50
2022-08-19T14:59:22.946Z,100411.78
2022-08-19T15:01:52.987Z,100417.50
2022-08-19T15:04:22.826Z,100425.44
2022-08-19T15:06:52.719Z,100421.38
2022-08-19T15:09:22.615Z,100439.13
2022-08-19T15:11:55.773Z,100440.78
2022-08-19T15:14:25.579Z,100441.06
2022-08-19T15:16:55.523Z,100448.72
2022-08-19T15:19:25.402Z,100451.72
2022-08-19T15:21:55.848Z,100447.91
2022-08-19T15:24:26.302Z,100458.84
2022-08-19T15:26:59.468Z,100463.53
2022-08-19T15:29:29.362Z,100464.63
2022-08-19T15:31:59.255Z,100458.63
2022-08-19T15:34:29.853Z,100460.81
2022-08-19T15:37:00.233Z,100465.75
2022-08-19T15:39:30.208Z,100471.47
2022-08-19T15:42:04.129Z,100471.75
2022-08-19T15:44:37.224Z,100473.38
2022-08-19T15:47:07.392Z,100472.84
2022-08-19T15:49:37.227Z,100471.22
2022-08-19T15:52:08.051Z,100478.59
2022-08-19T15:54:37.908Z,100473.94
2022-08-19T15:57:22.922Z,100473.94
2022-08-19T16:00:05.219Z,100467.41
2022-08-19T16:02:54.532Z,100468.50
2022-08-19T16:05:39.442Z,100459.50
2022-08-19T16:08:10.380Z,100467.44
2022-08-19T16:10:41.149Z,100470.97
2022-08-19T16:15:58.030Z,100461.97
2022-08-19T16:18:28.188Z,100472.34
2022-08-19T16:20:58.103Z,100467.97
2022-08-19T16:23:28.013Z,100460.88
2022-08-19T16:25:57.986Z,100458.72
2022-08-19T16:28:30.513Z,100466.06
2022-08-19T16:31:00.399Z,100482.13
2022-08-19T16:33:30.324Z,100488.16
2022-08-19T16:36:06.970Z,100487.59
2022-08-19T16:38:37.852Z,100489.50
2022-08-19T16:41:08.077Z,100481.59
2022-08-19T16:43:40.632Z,100492.78
2022-08-19T16:46:11.438Z,100484.59
2022-08-19T16:48:46.393Z,100479.97
2022-08-19T16:51:18.727Z,100489.78
2022-08-19T16:53:49.113Z,100487.88
2022-08-19T16:56:19.638Z,100488.97
2022-08-19T16:58:53.944Z,100483.78
2022-08-19T17:01:23.894Z,100488.16
2022-08-19T17:03:53.819Z,100481.06
2022-08-19T17:06:26.501Z,100487.59
2022-08-19T17:08:59.339Z,100490.34
2022-08-19T17:11:31.637Z,100484.06
2022-08-19T17:14:05.050Z,100484.88
2022-08-19T17:16:37.407Z,100482.19
2022-08-19T17:19:10.136Z,100488.44
2022-08-19T17:21:41.204Z,100478.91
2022-08-19T17:24:12.226Z,100474.84
2022-08-19T17:26:42.299Z,100477.31
2022-08-19T17:29:15.026Z,100481.41
2022-08-19T17:31:45.132Z,100484.41
2022-08-19T17:34:15.502Z,100480.63
2022-08-19T17:36:45.423Z,100479.53
2022-08-19T17:39:15.323Z,100480.09
2022-08-19T17:41:45.369Z,100485.00
2022-08-19T17:44:19.037Z,100489.88
2022-08-19T17:46:49.270Z,100500.22
2022-08-19T17:49:20.019Z,100506.75
2022-08-19T17:51:52.350Z,100502.69
2022-08-19T17:54:22.897Z,100502.69
2022-08-19T17:56:52.812Z,100501.88
2022-08-19T17:59:26.538Z,100509.50
2022-08-19T18:02:00.381Z,100499.69
2022-08-19T18:04:30.920Z,100503.50
2022-08-19T18:07:04.332Z,100514.69
2022-08-19T18:09:52.859Z,100529.63
2022-08-19T18:12:27.243Z,100526.66
2022-08-19T18:15:04.571Z,100521.47
2022-08-19T18:17:36.004Z,100525.00
2022-08-19T18:20:11.786Z,100525.56
2022-08-19T18:22:43.656Z,100537.81
2022-08-19T18:25:17.501Z,100541.88
2022-08-19T18:27:47.991Z,100543.78
2022-08-19T18:30:22.386Z,100536.72
2022-08-19T18:32:52.964Z,100531.56
2022-08-19T18:35:29.757Z,100540.81
2022-08-19T18:38:00.975Z,100552.50
2022-08-19T18:40:44.451Z,100550.34
2022-08-19T18:43:32.456Z,100552.50
2022-08-19T18:46:17.406Z,100560.94
2022-08-19T18:48:59.663Z,100567.47
2022-08-19T18:51:30.045Z,100566.13
2022-08-19T18:54:01.303Z,100572.91
2022-08-19T18:56:33.379Z,100579.69
2022-08-19T18:59:04.298Z,100568.28
2022-08-19T19:01:40.307Z,100584.06
2022-08-19T19:04:13.554Z,100588.13
2022-08-19T19:06:45.374Z,100585.69
2022-08-19T19:09:18.030Z,100590.03
2022-08-19T19:11:50.468Z,100590.31
2022-08-19T19:14:47.805Z,100599.81
2022-08-19T19:17:17.993Z,100603.09
2022-08-19T19:19:48.147Z,100609.63
2022-08-19T19:22:22.664Z,100610.16
2022-08-19T19:24:54.238Z,100608.53
2022-08-19T19:27:24.665Z,100601.47
2022-08-19T19:29:55.806Z,100606.09
2022-08-19T19:32:38.685Z,100618.88
2022-08-19T19:35:12.663Z,100612.88
2022-08-19T19:37:43.456Z,100615.31
2022-08-19T19:40:13.959Z,100616.41
2022-08-19T19:42:43.829Z,100624.84
2022-08-19T19:45:13.863Z,100631.91
2022-08-19T19:47:50.258Z,100617.22
2022-08-19T19:50:21.063Z,100623.75
2022-08-19T19:52:50.953Z,100621.31
2022-08-19T19:55:20.967Z,100627.00
2022-08-19T19:57:53.616Z,100635.16
2022-08-19T20:00:25.213Z,100633.53
2022-08-19T20:02:57.734Z,100637.34
2022-08-19T20:05:28.195Z,100630.53
2022-08-19T20:08:10.804Z,100626.19
2022-08-19T20:10:41.392Z,100623.66
2022-08-19T20:13:11.724Z,100628.28
2022-08-19T20:15:43.517Z,100645.44
2022-08-19T20:18:16.487Z,100644.88
2022-08-19T20:20:50.182Z,100648.41
2022-08-19T20:23:20.545Z,100645.97
2022-08-19T20:25:50.671Z,100647.06
2022-08-19T20:28:22.923Z,100643.78
2022-08-19T20:30:53.315Z,100647.84
2022-08-19T20:33:25.752Z,100636.97
2022-08-19T20:35:55.714Z,100632.34
2022-08-19T20:38:25.756Z,100631.53
2022-08-19T20:40:55.615Z,100630.72
2022-08-19T20:43:25.604Z,100624.47
2022-08-19T20:45:56.652Z,100614.66
2022-08-19T20:48:29.134Z,100611.41
2022-08-19T20:50:59.894Z,100620.09
2022-08-19T20:53:29.896Z,100617.66
2022-08-19T20:56:00.189Z,100623.38
2022-08-19T20:58:30.499Z,100620.66
2022-08-19T21:01:03.163Z,100620.91
2022-08-19T21:03:42.472Z,100613.56
2022-08-19T21:06:14.656Z,100617.09
2022-08-19T21:08:45.210Z,100611.94
2022-08-19T21:11:20.563Z,100611.94
2022-08-19T21:13:51.087Z,100605.13
2022-08-19T21:16:21.065Z,100603.50
2022-08-19T21:18:53.470Z,100611.94
2022-08-19T21:21:23.391Z,100614.38
2022-08-19T21:23:53.243Z,100609.75
2022-08-19T21:26:24.441Z,100617.09
2022-08-19T21:28:54.317Z,100620.63
2022-08-19T21:31:24.177Z,100620.91
2022-08-19T21:33:56.646Z,100630.13
2022-08-19T21:36:27.031Z,100629.31
2022-08-19T21:38:56.848Z,100637.75
2022-08-19T21:41:26.712Z,100639.66
2022-08-19T21:43:56.894Z,100641.00
2022-08-19T21:46:26.747Z,100641.81
2022-08-19T21:48:59.214Z,100629.56
2022-08-19T21:51:29.120Z,100626.03
2022-08-19T21:53:58.949Z,100631.47
2022-08-19T21:56:29.471Z,100621.97
2022-08-19T21:59:00.468Z,100608.38
2022-08-19T22:01:30.365Z,100602.94
2022-08-19T22:04:03.102Z,100605.38
2022-08-19T22:06:32.950Z,100605.63
2022-08-19T22:09:02.750Z,100620.88
2022-08-19T22:11:32.620Z,100619.22
2022-08-19T22:14:04.313Z,100619.50
2022-08-19T22:16:35.298Z,100612.44
2022-08-19T22:19:08.676Z,100615.41
2022-08-19T22:21:40.920Z,100613.25
2022-08-19T22:24:11.808Z,100610.78
2022-08-19T22:26:41.735Z,100605.34
2022-08-19T22:29:15.635Z,100601.25
2022-08-19T22:31:54.253Z,100608.84
2022-08-19T22:34:27.246Z,100601.78
2022-08-19T22:36:57.482Z,100603.41
2022-08-19T22:39:27.276Z,100622.44
2022-08-19T22:41:57.445Z,100618.06
2022-08-19T22:44:27.853Z,100621.88
2022-08-19T22:46:57.837Z,100614.81
2022-08-19T22:49:30.285Z,100621.59
2022-08-19T22:52:12.575Z,100620.78
2022-08-19T22:54:42.512Z,100609.34
2022-08-19T22:57:12.555Z,100605.00
2022-08-19T22:59:42.957Z,100606.09
2022-08-19T23:02:13.002Z,100601.72
2022-08-19T23:04:45.509Z,100596.81
2022-08-19T23:07:15.497Z,100597.66
2022-08-19T23:09:46.323Z,100590.56
2022-08-19T23:12:17.658Z,100593.56
2022-08-19T23:14:47.603Z,100600.06
2022-08-19T23:17:17.465Z,100617.47
2022-08-19T23:19:53.421Z,100620.13
2022-08-19T23:22:24.919Z,100627.72
2022-08-19T23:24:55.998Z,100618.50
2022-08-19T23:27:38.595Z,100620.66
2022-08-19T23:30:22.060Z,100615.75
2022-08-19T23:32:52.515Z,100614.94
2022-08-19T23:35:25.923Z,100617.09
2022-08-19T23:37:57.591Z,100619.81
2022-08-19T23:40:27.890Z,100616.50
2022-08-19T23:42:58.395Z,100616.28
2022-08-19T23:45:30.278Z,100610.25
2022-08-19T23:48:03.520Z,100609.19
2022-08-19T23:50:35.979Z,100595.03
2022-08-19T23:53:06.628Z,100604.81
2022-08-19T23:55:46.499Z,100606.19
2022-08-19T23:58:18.580Z,100609.72
